Time;durP1;ratioP1;P1;durP2;ratioP2;P2;SDS_P1;SDS_P2;PMS_P1;PMS_P2;Temp;Humidity;BMP_temperature;BMP_pressure;BME280_temperature;BME280_humidity;BME280_pressure;Samples;Min_cycle;Max_cycle;Signal;HPM_P1;HPM_P2
2022/08/17 00:01:45;;;;;;;0.60;0.50;;;;;;;-145.06;100.00;60892.56;4837202;28;20108;-89
2022/08/17 00:04:24;;;;;;;0.60;0.52;;;;;;;-145.06;100.00;60892.56;4836328;28;20045;-89
2022/08/17 00:07:03;;;;;;;0.73;0.70;;;;;;;-145.06;100.00;60892.56;4831751;28;20034;-89
2022/08/17 00:09:42;;;;;;;1.63;0.60;;;;;;;-145.06;100.00;60892.56;4834201;28;20038;-89
2022/08/17 00:12:21;;;;;;;0.80;0.60;;;;;;;-145.06;100.00;60892.56;4834489;28;20026;-89
2022/08/17 00:15:01;;;;;;;1.00;0.80;;;;;;;-145.06;100.00;60892.56;4834544;28;20029;-87
2022/08/17 00:17:43;;;;;;;0.82;0.50;;;;;;;-145.06;100.00;60892.56;4833560;28;20480;-88
2022/08/17 00:20:22;;;;;;;1.33;0.90;;;;;;;-145.06;100.00;60892.56;4836640;28;20480;-88
2022/08/17 00:23:11;;;;;;;0.88;0.60;;;;;;;-145.06;100.00;60892.56;4832941;28;20037;-88
2022/08/17 00:25:51;;;;;;;0.77;0.77;;;;;;;-145.06;100.00;60892.56;4829927;28;20389;-89
2022/08/17 00:28:30;;;;;;;0.80;0.80;;;;;;;-145.06;100.00;60892.56;4836126;28;20496;-89
2022/08/17 00:31:10;;;;;;;0.77;0.75;;;;;;;-145.06;100.00;60892.56;4833399;28;20428;-89
2022/08/17 00:33:49;;;;;;;1.30;0.90;;;;;;;-145.06;100.00;60892.56;4836896;28;20037;-89
2022/08/17 00:36:29;;;;;;;0.80;0.60;;;;;;;-145.06;100.00;60892.56;4852860;28;20034;-89
2022/08/17 00:39:08;;;;;;;0.80;0.77;;;;;;;-145.06;100.00;60892.56;4857684;28;20038;-90
2022/08/17 00:41:47;;;;;;;1.08;0.70;;;;;;;-145.06;100.00;60892.56;4844579;28;20034;-88
2022/08/17 00:44:26;;;;;;;1.23;0.90;;;;;;;-145.06;100.00;60892.56;4835739;28;20038;-89
2022/08/17 00:47:05;;;;;;;0.70;0.60;;;;;;;-145.06;100.00;60892.56;4834921;28;20034;-88
2022/08/17 00:49:44;;;;;;;0.70;0.70;;;;;;;-145.06;100.00;60892.56;4845198;28;20245;-89
2022/08/17 00:52:29;;;;;;;0.80;0.80;;;;;;;-145.06;100.00;60892.56;4836674;28;20517;-88
2022/08/17 00:55:09;;;;;;;0.85;0.73;;;;;;;-145.06;100.00;60892.56;4832532;28;20022;-88
2022/08/17 00:57:51;;;;;;;1.95;0.80;;;;;;;-145.06;100.00;60892.56;4824828;28;20034;-89
2022/08/17 01:00:36;;;;;;;0.95;0.80;;;;;;;-145.06;100.00;60892.56;4835705;28;20022;-88
2022/08/17 01:03:24;;;;;;;1.13;0.90;;;;;;;-145.06;100.00;60892.56;4832604;28;20041;-90
2022/08/17 01:06:05;;;;;;;0.95;0.80;;;;;;;-145.06;100.00;60892.56;4832738;28;20029;-89
2022/08/17 01:08:44;;;;;;;0.80;0.73;;;;;;;-145.06;100.00;60892.56;4832681;28;20034;-89
2022/08/17 01:11:24;;;;;;;0.77;0.68;;;;;;;-145.06;100.00;60892.56;4830612;28;20069;-88
2022/08/17 01:14:03;;;;;;;0.82;0.73;;;;;;;-145.06;100.00;60892.56;4834112;28;20038;-89
2022/08/17 01:16:42;;;;;;;0.93;0.80;;;;;;;-145.06;100.00;60892.56;4832221;28;20428;-89
2022/08/17 01:19:25;;;;;;;1.48;0.73;;;;;;;-145.06;100.00;60892.56;4827509;28;20547;-89
2022/08/17 01:22:10;;;;;;;1.95;0.95;;;;;;;-145.06;100.00;60892.56;4832569;28;20038;-88
2022/08/17 01:24:58;;;;;;;1.00;0.80;;;;;;;-145.06;100.00;60892.56;4829796;28;20038;-89
2022/08/17 01:27:38;;;;;;;1.00;0.90;;;;;;;-145.06;100.00;60892.56;4835149;28;20061;-89
2022/08/17 01:30:17;;;;;;;1.02;0.90;;;;;;;-145.06;100.00;60892.56;4831211;28;20069;-89
2022/08/17 01:32:56;;;;;;;0.60;0.50;;;;;;;-145.06;100.00;60892.56;4838551;28;20061;-89
2022/08/17 01:35:37;;;;;;;2.05;1.08;;;;;;;-145.06;100.00;60892.56;4833418;28;20112;-88
2022/08/17 01:38:17;;;;;;;1.17;0.82;;;;;;;-145.06;100.00;60892.56;4829911;28;20030;-90
2022/08/17 01:41:00;;;;;;;0.75;0.75;;;;;;;-145.06;100.00;60892.56;4828327;28;20026;-88
2022/08/17 01:43:47;;;;;;;1.05;0.70;;;;;;;-145.06;100.00;60892.56;4832956;28;20037;-88
2022/08/17 01:46:31;;;;;;;0.98;0.90;;;;;;;-145.06;100.00;60892.56;4833068;28;20037;-89
2022/08/17 01:49:10;;;;;;;1.08;0.70;;;;;;;-145.06;100.00;60892.56;4836398;28;20030;-88
2022/08/17 01:51:50;;;;;;;0.80;0.70;;;;;;;-145.06;100.00;60892.56;4825102;28;20069;-88
2022/08/17 01:54:29;;;;;;;1.10;0.88;;;;;;;-145.06;100.00;60892.56;4830794;28;20045;-89
2022/08/17 01:57:08;;;;;;;1.05;0.90;;;;;;;-145.06;100.00;60892.56;4833963;28;20695;-89
2022/08/17 01:59:47;;;;;;;1.70;0.80;;;;;;;-145.06;100.00;60892.56;4830935;28;20029;-88
2022/08/17 02:02:26;;;;;;;1.08;0.90;;;;;;;-145.06;100.00;60892.56;4829221;28;20121;-88
2022/08/17 02:05:06;;;;;;;0.90;0.77;;;;;;;-145.06;100.00;60892.56;4834383;28;20034;-88
2022/08/17 02:07:45;;;;;;;1.27;0.93;;;;;;;-145.06;100.00;60892.56;4838474;28;20038;-88
2022/08/17 02:10:26;;;;;;;1.73;0.98;;;;;;;-145.06;100.00;60892.56;4856409;28;20034;-89
2022/08/17 02:13:05;;;;;;;1.10;0.80;;;;;;;-145.06;100.00;60892.56;4847758;28;20041;-89
2022/08/17 02:15:44;;;;;;;1.00;0.90;;;;;;;-145.06;100.00;60892.56;4836681;28;20069;-90
2022/08/17 02:18:24;;;;;;;0.95;0.82;;;;;;;-145.06;100.00;60892.56;4827802;28;20082;-89
2022/08/17 02:21:04;;;;;;;1.58;0.90;;;;;;;-145.06;100.00;60892.56;4861563;28;20671;-89
2022/08/17 02:23:47;;;;;;;1.25;0.80;;;;;;;-145.06;100.00;60892.56;4830116;28;20109;-88
2022/08/17 02:26:25;;;;;;;1.10;0.93;;;;;;;-145.06;100.00;60892.56;4830183;28;20038;-89
2022/08/17 02:29:04;;;;;;;1.00;0.80;;;;;;;-145.06;100.00;60892.56;4836456;28;20030;-87
2022/08/17 02:31:43;;;;;;;1.65;0.80;;;;;;;-145.06;100.00;60892.56;4836238;28;20483;-89
2022/08/17 02:34:23;;;;;;;1.20;0.93;;;;;;;-145.06;100.00;60892.56;4834186;28;20441;-88
2022/08/17 02:37:02;;;;;;;1.00;0.90;;;;;;;-145.06;100.00;60892.56;4828852;28;20120;-88
2022/08/17 02:39:41;;;;;;;1.50;1.00;;;;;;;-145.06;100.00;60892.56;4833665;28;20034;-89
2022/08/17 02:42:28;;;;;;;1.33;1.13;;;;;;;-145.06;100.00;60892.56;4841109;28;20113;-89
2022/08/17 02:45:14;;;;;;;1.10;0.90;;;;;;;-145.06;100.00;60892.56;4833518;28;20034;-88
2022/08/17 02:47:54;;;;;;;1.25;0.93;;;;;;;-145.06;100.00;60892.56;4829830;28;20491;-88
2022/08/17 02:50:33;;;;;;;1.67;1.15;;;;;;;-145.06;100.00;60892.56;4833501;28;20045;-90
2022/08/17 02:53:12;;;;;;;1.50;1.10;;;;;;;-145.06;100.00;60892.56;4834063;28;20113;-88
2022/08/17 02:55:52;;;;;;;1.10;1.00;;;;;;;-145.06;100.00;60892.56;4836720;28;20034;-89
2022/08/17 02:58:31;;;;;;;1.98;1.13;;;;;;;-145.06;100.00;60892.56;4835459;28;20034;-91
2022/08/17 03:01:11;;;;;;;3.10;2.05;;;;;;;-145.06;100.00;60892.56;4838985;28;20100;-90
2022/08/17 03:03:50;;;;;;;1.95;1.42;;;;;;;-145.06;100.00;60892.56;4836664;28;20034;-90
2022/08/17 03:06:30;;;;;;;3.47;1.38;;;;;;;-145.06;100.00;60892.56;4828206;28;20034;-89
2022/08/17 03:09:09;;;;;;;1.92;1.20;;;;;;;-145.06;100.00;60892.56;4836349;28;20025;-89
2022/08/17 03:11:50;;;;;;;1.98;1.45;;;;;;;-145.06;100.00;60892.56;4826896;28;20030;-90
2022/08/17 03:14:31;;;;;;;1.98;1.30;;;;;;;-145.06;100.00;60892.56;4834327;28;20559;-90
2022/08/17 03:17:10;;;;;;;2.08;1.52;;;;;;;-145.06;100.00;60892.56;4832360;28;20026;-89
2022/08/17 03:19:49;;;;;;;1.88;1.30;;;;;;;-145.06;100.00;60892.56;4836499;28;20120;-90
2022/08/17 03:22:28;;;;;;;1.47;1.10;;;;;;;-145.06;100.00;60892.56;4833537;28;20509;-88
2022/08/17 03:25:09;;;;;;;1.45;0.95;;;;;;;-145.06;100.00;60892.56;4833693;28;20308;-90
2022/08/17 03:27:49;;;;;;;1.80;1.20;;;;;;;-145.06;100.00;60892.56;4829380;28;20034;-88
2022/08/17 03:30:29;;;;;;;1.40;0.95;;;;;;;-145.06;100.00;60892.56;4832406;28;20709;-88
2022/08/17 03:33:09;;;;;;;1.63;1.30;;;;;;;-145.06;100.00;60892.56;4841246;28;20033;-89
2022/08/17 03:35:48;;;;;;;1.60;1.05;;;;;;;-145.06;100.00;60892.56;4835759;28;20479;-87
2022/08/17 03:38:27;;;;;;;;;;;;;;;-145.06;100.00;60892.56;4838081;28;20045;-89
2022/08/17 03:41:06;;;;;;;1.20;1.10;;;;;;;-145.06;100.00;60892.56;4837024;28;19917;-90
2022/08/17 03:43:45;;;;;;;1.17;0.93;;;;;;;-145.06;100.00;60892.56;4829721;28;20487;-88
2022/08/17 03:58:16;;;;;;;1.17;1.05;;;;;;;-145.06;100.00;60892.56;4830686;28;20025;-87
2022/08/17 04:00:55;;;;;;;1.58;0.95;;;;;;;-145.06;100.00;60892.56;4834334;28;20025;-88
2022/08/17 04:03:35;;;;;;;1.40;1.30;;;;;;;-145.06;100.00;60892.56;4836272;28;20046;-88
2022/08/17 04:06:14;;;;;;;1.30;1.10;;;;;;;-145.06;100.00;60892.56;4833603;28;20492;-88
2022/08/17 04:08:53;;;;;;;1.67;1.10;;;;;;;-145.06;100.00;60892.56;4838063;28;20534;-89
2022/08/17 04:11:33;;;;;;;1.83;1.15;;;;;;;-145.06;100.00;60892.56;4835535;28;20053;-87
2022/08/17 04:14:13;;;;;;;1.25;0.98;;;;;;;-145.06;100.00;60892.56;4835648;28;20038;-87
2022/08/17 04:16:52;;;;;;;1.15;1.05;;;;;;;-145.06;100.00;60892.56;4839336;28;20029;-89
2022/08/17 04:19:31;;;;;;;1.35;1.20;;;;;;;-145.06;100.00;60892.56;4829713;28;20136;-89
2022/08/17 04:22:11;;;;;;;1.60;1.17;;;;;;;-145.06;100.00;60892.56;4825214;28;20034;-88
2022/08/17 04:24:50;;;;;;;1.20;1.10;;;;;;;-145.06;100.00;60892.56;4835385;28;20030;-90
2022/08/17 04:27:29;;;;;;;1.33;1.23;;;;;;;-145.06;100.00;60892.56;4834442;28;20868;-88
2022/08/17 04:30:08;;;;;;;1.80;1.23;;;;;;;-145.06;100.00;60892.56;4833708;28;20033;-88
2022/08/17 04:32:59;;;;;;;1.75;1.42;;;;;;;-145.06;100.00;60892.56;4831380;28;20030;-88
2022/08/17 04:35:45;;;;;;;1.73;1.10;;;;;;;-145.06;100.00;60892.56;4833655;28;20042;-88
2022/08/17 04:38:27;;;;;;;1.00;0.90;;;;;;;-145.06;100.00;60892.56;4833032;28;20540;-88
2022/08/17 04:44:05;;;;;;;0.98;0.88;;;;;;;-145.06;100.00;60892.56;4833518;28;20038;-89
2022/08/17 04:46:44;;;;;;;1.90;1.05;;;;;;;-145.06;100.00;60892.56;4832818;28;20484;-88
2022/08/17 04:49:24;;;;;;;1.10;1.00;;;;;;;-145.06;100.00;60892.56;4831913;28;20046;-88
2022/08/17 04:52:03;;;;;;;1.67;1.30;;;;;;;-145.06;100.00;60892.56;4829116;28;20370;-88
2022/08/17 04:54:42;;;;;;;1.27;1.10;;;;;;;-145.06;100.00;60892.56;4830266;28;20105;-88
2022/08/17 04:57:21;;;;;;;1.33;1.13;;;;;;;-145.06;100.00;60892.56;4832737;28;20034;-89
2022/08/17 05:00:00;;;;;;;1.23;0.98;;;;;;;-145.06;100.00;60892.56;4831015;28;20029;-89
2022/08/17 05:02:47;;;;;;;1.40;1.10;;;;;;;-145.06;100.00;60892.56;4828900;28;20492;-89
2022/08/17 05:05:33;;;;;;;1.20;1.08;;;;;;;-145.06;100.00;60892.56;4840942;28;20112;-89
2022/08/17 05:08:12;;;;;;;1.77;0.93;;;;;;;-145.06;100.00;60892.56;4834285;28;20034;-89
2022/08/17 05:10:51;;;;;;;1.40;1.00;;;;;;;-145.06;100.00;60892.56;4830289;28;20034;-88
2022/08/17 05:13:30;;;;;;;2.05;1.10;;;;;;;-145.06;100.00;60892.56;4825216;28;20093;-88
2022/08/17 05:16:09;;;;;;;2.08;1.25;;;;;;;-145.06;100.00;60892.56;4833616;28;20034;-89
2022/08/17 05:18:49;;;;;;;3.05;1.17;;;;;;;-145.06;100.00;60892.56;4841637;28;20026;-89
2022/08/17 05:21:28;;;;;;;1.13;1.00;;;;;;;-145.06;100.00;60892.56;4848435;28;20034;-90
2022/08/17 05:24:08;;;;;;;1.20;0.90;;;;;;;-145.06;100.00;60892.56;4849886;28;20045;-89
2022/08/17 05:26:47;;;;;;;1.25;0.95;;;;;;;-145.06;100.00;60892.56;4831019;28;20061;-90
2022/08/17 05:29:26;;;;;;;0.70;0.70;;;;;;;-145.06;100.00;60892.56;4827247;28;20413;-88
2022/08/17 05:32:11;;;;;;;1.25;0.93;;;;;;;-145.06;100.00;60892.56;4830191;28;20109;-89
2022/08/17 05:34:50;;;;;;;1.38;1.23;;;;;;;-145.06;100.00;60892.56;4829413;28;20042;-90
2022/08/17 05:37:29;;;;;;;1.00;0.90;;;;;;;-145.06;100.00;60892.56;4837954;28;20463;-89
2022/08/17 05:40:09;;;;;;;0.98;0.63;;;;;;;-145.06;100.00;60892.56;4832329;28;20068;-90
2022/08/17 05:42:48;;;;;;;1.10;0.98;;;;;;;-145.06;100.00;60892.56;4823240;28;20527;-88
2022/08/17 05:45:29;;;;;;;1.23;0.90;;;;;;;-145.06;100.00;60892.56;4858356;28;20499;-90
2022/08/17 05:48:09;;;;;;;0.70;0.70;;;;;;;-145.06;100.00;60892.56;4828282;28;20484;-89
2022/08/17 05:51:12;;;;;;;0.60;0.60;;;;;;;-145.06;100.00;60892.56;4826213;28;20065;-89
2022/08/17 05:54:23;;;;;;;0.77;0.68;;;;;;;-145.06;100.00;60892.56;4828294;28;20030;-89
2022/08/17 05:57:28;;;;;;;1.58;0.93;;;;;;;-145.06;100.00;60892.56;4841694;28;20026;-90
2022/08/17 06:00:36;;;;;;;0.70;0.70;;;;;;;-145.06;100.00;60892.56;4829761;28;20116;-89
2022/08/17 06:03:53;;;;;;;0.90;0.80;;;;;;;-145.06;100.00;60892.56;4821730;28;20038;-89
2022/08/17 06:06:40;;;;;;;0.80;0.80;;;;;;;-145.06;100.00;60892.56;4826875;28;20026;-89
2022/08/17 06:09:31;;;;;;;1.17;0.98;;;;;;;-145.06;100.00;60892.56;4829255;28;20046;-89
2022/08/17 06:12:22;;;;;;;0.90;0.90;;;;;;;-145.06;100.00;60892.56;4860434;28;20026;-88
2022/08/17 06:15:25;;;;;;;0.98;0.88;;;;;;;-145.06;100.00;60892.56;4832678;28;20034;-88
2022/08/17 06:18:08;;;;;;;1.10;1.00;;;;;;;-145.06;100.00;60892.56;4834890;28;20030;-89
2022/08/17 06:21:02;;;;;;;1.88;0.90;;;;;;;-145.06;100.00;60892.56;4833021;28;20045;-89
2022/08/17 06:24:01;;;;;;;1.52;0.80;;;;;;;-145.06;100.00;60892.56;4828264;28;20388;-91
2022/08/17 06:26:44;;;;;;;0.98;0.88;;;;;;;-145.06;100.00;60892.56;4842003;28;20037;-89
2022/08/17 06:29:53;;;;;;;1.10;1.00;;;;;;;-145.06;100.00;60892.56;4841566;28;20037;-88
2022/08/17 06:32:41;;;;;;;1.10;0.95;;;;;;;-145.06;100.00;60892.56;4843802;28;20057;-91
2022/08/17 06:35:47;;;;;;;1.20;1.10;;;;;;;-145.06;100.00;60892.56;4836621;28;20112;-90
2022/08/17 06:38:50;;;;;;;1.00;0.90;;;;;;;-145.06;100.00;60892.56;4838669;28;20041;-90
2022/08/17 06:41:49;;;;;;;1.35;1.25;;;;;;;-145.06;100.00;60892.56;4837066;28;20520;-90
2022/08/17 06:44:49;;;;;;;1.08;0.95;;;;;;;-145.06;100.00;60892.56;4837824;28;20108;-88
2022/08/17 06:47:35;;;;;;;1.52;1.20;;;;;;;-145.06;100.00;60892.56;4839078;28;20034;-90
2022/08/17 06:50:20;;;;;;;1.60;1.13;;;;;;;-145.06;100.00;60892.56;4837118;28;20034;-88
2022/08/17 06:53:33;;;;;;;1.45;1.23;;;;;;;-145.06;100.00;60892.56;4834149;28;20025;-90
2022/08/17 06:56:40;;;;;;;1.10;1.00;;;;;;;-145.06;100.00;60892.56;4835631;28;20038;-90
2022/08/17 06:59:27;;;;;;;1.15;1.05;;;;;;;-145.06;100.00;60892.56;4838748;28;20034;-89
2022/08/17 07:02:08;;;;;;;7.30;1.67;;;;;;;-145.06;100.00;60892.56;4835614;28;20116;-89
2022/08/17 07:04:51;;;;;;;1.42;1.10;;;;;;;-145.06;100.00;60892.56;4865910;28;20030;-89
2022/08/17 07:10:41;;;;;;;1.33;1.20;;;;;;;-145.06;100.00;60892.56;4830315;28;20018;-89
2022/08/17 07:13:36;;;;;;;1.60;1.50;;;;;;;-145.06;100.00;60892.56;4836476;28;20026;-89
2022/08/17 07:16:26;;;;;;;1.27;1.17;;;;;;;-145.06;100.00;60892.56;4841394;28;20100;-89
2022/08/17 07:19:06;;;;;;;1.40;1.13;;;;;;;-145.06;100.00;60892.56;4849078;28;20030;-89
2022/08/17 07:21:57;;;;;;;1.75;1.13;;;;;;;-145.06;100.00;60892.56;4838781;28;20385;-89
2022/08/17 07:24:56;;;;;;;1.45;1.30;;;;;;;-145.06;100.00;60892.56;4864176;28;20025;-87
2022/08/17 07:27:41;;;;;;;1.50;1.10;;;;;;;-145.06;100.00;60892.56;4830094;28;20037;-91
2022/08/17 07:30:32;;;;;;;1.48;1.20;;;;;;;-145.06;100.00;60892.56;4845357;28;20033;-89
2022/08/17 07:33:21;;;;;;;1.65;1.30;;;;;;;-145.06;100.00;60892.56;4834722;28;20471;-90
2022/08/17 07:36:01;;;;;;;1.30;1.20;;;;;;;-145.06;100.00;60892.56;4839937;28;20021;-89
2022/08/17 07:38:54;;;;;;;1.48;1.33;;;;;;;-145.06;100.00;60892.56;4836887;28;20116;-88
2022/08/17 07:41:39;;;;;;;1.38;1.20;;;;;;;-145.06;100.00;60892.56;4835826;28;20487;-89
2022/08/17 07:44:18;;;;;;;2.00;1.40;;;;;;;-145.06;100.00;60892.56;4837671;28;20041;-89
2022/08/17 07:49:56;;;;;;;1.20;1.10;;;;;;;-145.06;100.00;60892.56;4836692;28;20034;-89
2022/08/17 07:52:35;;;;;;;1.75;1.30;;;;;;;-145.06;100.00;60892.56;4833050;28;20495;-90
2022/08/17 07:55:28;;;;;;;1.40;1.30;;;;;;;-145.06;100.00;60892.56;4835809;28;20049;-89
2022/08/17 07:58:08;;;;;;;1.23;1.05;;;;;;;-145.06;100.00;60892.56;4842550;28;20029;-90
2022/08/17 08:01:09;;;;;;;1.65;1.30;;;;;;;-145.06;100.00;60892.56;4835135;28;20057;-90
2022/08/17 08:03:48;;;;;;;1.80;1.30;;;;;;;-145.06;100.00;60892.56;4822871;28;20472;-90
2022/08/17 08:06:27;;;;;;;1.45;1.00;;;;;;;-145.06;100.00;60892.56;4836758;28;20026;-89
2022/08/17 08:09:06;;;;;;;1.13;1.02;;;;;;;-145.06;100.00;60892.56;4834090;28;20042;-90
2022/08/17 08:11:45;;;;;;;1.23;1.13;;;;;;;-145.06;100.00;60892.56;4830925;28;20030;-89
2022/08/17 08:14:29;;;;;;;1.58;1.35;;;;;;;-145.06;100.00;60892.56;4836645;28;20038;-89
2022/08/17 08:17:10;;;;;;;1.40;1.00;;;;;;;-145.06;100.00;60892.56;4836940;28;20034;-89
2022/08/17 08:19:49;;;;;;;1.35;1.25;;;;;;;-145.06;100.00;60892.56;4837631;28;20034;-90
2022/08/17 08:22:37;;;;;;;1.63;1.40;;;;;;;-145.06;100.00;60892.56;4838188;28;20507;-90
2022/08/17 08:25:25;;;;;;;1.83;1.45;;;;;;;-145.06;100.00;60892.56;4831859;28;20112;-90
2022/08/17 08:28:48;;;;;;;1.70;1.60;;;;;;;-145.06;100.00;60892.56;4837141;28;20052;-90
2022/08/17 08:31:55;;;;;;;1.85;1.42;;;;;;;-145.06;100.00;60892.56;4815465;28;20026;-89
2022/08/17 08:35:10;;;;;;;1.45;1.35;;;;;;;-145.06;100.00;60892.56;4856082;28;20042;-89
2022/08/17 08:38:08;;;;;;;2.10;1.90;;;;;;;-145.06;100.00;60892.56;4822171;28;20038;-89
2022/08/17 08:40:54;;;;;;;1.70;1.60;;;;;;;-145.06;100.00;60892.56;4831563;28;20029;-89
2022/08/17 08:44:02;;;;;;;1.80;1.55;;;;;;;-145.06;100.00;60892.56;4829334;28;20057;-88
2022/08/17 08:47:03;;;;;;;1.88;1.60;;;;;;;-145.06;100.00;60892.56;4819308;28;20038;-88
2022/08/17 08:49:56;;;;;;;2.33;1.65;;;;;;;-145.06;100.00;60892.56;4844158;28;20408;-88
2022/08/17 08:53:00;;;;;;;1.95;1.65;;;;;;;-145.06;100.00;60892.56;4835170;28;20120;-89
2022/08/17 08:55:53;;;;;;;1.60;1.50;;;;;;;-145.06;100.00;60892.56;4829011;28;20029;-90
2022/08/17 08:58:54;;;;;;;1.60;1.50;;;;;;;-145.06;100.00;60892.56;4840200;28;20112;-89
2022/08/17 09:01:52;;;;;;;1.75;1.42;;;;;;;-145.06;100.00;60892.56;4829119;28;20030;-89
2022/08/17 09:04:47;;;;;;;1.90;1.70;;;;;;;-145.06;100.00;60892.56;4831500;28;20038;-89
2022/08/17 09:07:35;;;;;;;1.88;1.70;;;;;;;-145.06;100.00;60892.56;4836554;28;20030;-89
2022/08/17 09:10:24;;;;;;;2.42;1.70;;;;;;;-145.06;100.00;60892.56;4847820;28;20026;-89
2022/08/17 09:13:12;;;;;;;2.20;2.00;;;;;;;-145.06;100.00;60892.56;4836617;28;20499;-89
2022/08/17 09:15:58;;;;;;;3.25;1.70;;;;;;;-145.06;100.00;60892.56;4839491;28;20116;-90
2022/08/17 09:18:41;;;;;;;2.30;2.10;;;;;;;-145.06;100.00;60892.56;4831667;28;20034;-90
2022/08/17 09:21:40;;;;;;;2.05;1.85;;;;;;;-145.06;100.00;60892.56;4838927;28;20105;-89
2022/08/17 09:24:55;;;;;;;2.30;1.98;;;;;;;-145.06;100.00;60892.56;4809526;28;20520;-89
2022/08/17 09:27:45;;;;;;;2.17;1.80;;;;;;;-145.06;100.00;60892.56;4824945;28;20033;-89
2022/08/17 09:30:42;;;;;;;2.33;1.73;;;;;;;-145.06;100.00;60892.56;4834589;28;20042;-89
2022/08/17 09:33:27;;;;;;;2.10;1.80;;;;;;;-145.06;100.00;60892.56;4836086;28;20113;-89
2022/08/17 09:36:25;;;;;;;1.92;1.73;;;;;;;-145.06;100.00;60892.56;4836568;28;20029;-90
2022/08/17 09:39:12;;;;;;;2.22;1.85;;;;;;;-145.06;100.00;60892.56;4839916;28;20108;-90
2022/08/17 09:42:04;;;;;;;2.55;2.10;;;;;;;-145.06;100.00;60892.56;4836138;28;20029;-89
2022/08/17 09:45:06;;;;;;;2.08;1.88;;;;;;;-145.06;100.00;60892.56;4857780;28;20034;-89
2022/08/17 09:47:52;;;;;;;2.20;2.00;;;;;;;-145.06;100.00;60892.56;4840584;28;20041;-90
2022/08/17 09:50:38;;;;;;;2.00;1.80;;;;;;;-145.06;100.00;60892.56;4832785;28;20026;-90
2022/08/17 09:53:17;;;;;;;2.03;1.60;;;;;;;-145.06;100.00;60892.56;4835335;28;20049;-91
2022/08/17 09:56:22;;;;;;;2.03;1.83;;;;;;;-145.06;100.00;60892.56;4835402;28;20061;-90
2022/08/17 09:59:21;;;;;;;2.03;1.75;;;;;;;-145.06;100.00;60892.56;4813455;28;20026;-90
2022/08/17 10:02:39;;;;;;;1.85;1.67;;;;;;;-145.06;100.00;60892.56;4835703;28;20034;-91
2022/08/17 10:05:24;;;;;;;1.75;1.58;;;;;;;-145.06;100.00;60892.56;4835114;28;20022;-91
2022/08/17 10:08:21;;;;;;;2.40;1.98;;;;;;;-145.06;100.00;60892.56;4836095;28;20034;-91
2022/08/17 10:11:21;;;;;;;1.95;1.65;;;;;;;-145.06;100.00;60892.56;4834698;28;20042;-89
2022/08/17 10:14:13;;;;;;;2.20;1.95;;;;;;;-145.06;100.00;60892.56;4833444;28;20033;-90
2022/08/17 10:16:59;;;;;;;2.10;1.90;;;;;;;-145.06;100.00;60892.56;4838376;28;20069;-90
2022/08/17 10:19:50;;;;;;;2.30;2.00;;;;;;;-145.06;100.00;60892.56;4837160;28;20026;-90
2022/08/17 10:29:02;;;;;;;2.10;1.80;;;;;;;-145.06;100.00;60892.56;4834238;28;20373;-90
2022/08/17 10:31:56;;;;;;;2.20;2.00;;;;;;;-145.06;100.00;60892.56;4835156;28;20025;-91
2022/08/17 10:35:13;;;;;;;2.45;1.85;;;;;;;-145.06;100.00;60892.56;4829477;28;20381;-90
2022/08/17 10:38:11;;;;;;;2.15;1.95;;;;;;;-145.06;100.00;60892.56;4831788;28;20029;-91
2022/08/17 10:40:59;;;;;;;2.45;2.10;;;;;;;-145.06;100.00;60892.56;4830599;28;20038;-90
2022/08/17 10:43:50;;;;;;;1.83;1.70;;;;;;;-145.06;100.00;60892.56;4837269;28;20034;-90
2022/08/17 10:46:55;;;;;;;2.38;1.95;;;;;;;-145.06;100.00;60892.56;4827592;28;20053;-90
2022/08/17 10:49:37;;;;;;;2.20;2.00;;;;;;;-145.06;100.00;60892.56;4828523;28;20061;-90
2022/08/17 10:52:19;;;;;;;2.35;2.15;;;;;;;-145.06;100.00;60892.56;4836128;28;20491;-91
2022/08/17 10:55:04;;;;;;;2.47;2.25;;;;;;;-145.06;100.00;60892.56;4835641;28;20061;-91
2022/08/17 10:57:46;;;;;;;3.10;2.78;;;;;;;-145.06;100.00;60892.56;4837510;28;20093;-92
2022/08/17 11:00:28;;;;;;;2.83;2.47;;;;;;;-145.06;100.00;60892.56;4836162;28;20030;-90
2022/08/17 11:03:23;;;;;;;3.90;2.60;;;;;;;-145.06;100.00;60892.56;4870766;28;20026;-90
2022/08/17 11:06:31;;;;;;;3.17;2.40;;;;;;;-145.06;100.00;60892.56;4836044;28;20025;-90
2022/08/17 11:09:58;;;;;;;2.60;2.08;;;;;;;-145.06;100.00;60892.56;4830730;28;20125;-89
2022/08/17 11:12:50;;;;;;;2.63;2.28;;;;;;;-145.06;100.00;60892.56;4837353;28;20026;-90
2022/08/17 11:15:44;;;;;;;3.00;2.70;;;;;;;-145.06;100.00;60892.56;4848504;28;20499;-91
2022/08/17 11:19:08;;;;;;;2.97;2.60;;;;;;;-145.06;100.00;60892.56;4846466;28;20381;-90
2022/08/17 11:22:09;;;;;;;3.33;2.30;;;;;;;-145.06;100.00;60892.56;4827543;28;20065;-90
2022/08/17 11:24:51;;;;;;;2.67;2.25;;;;;;;-145.06;100.00;60892.56;4828558;28;20401;-90
2022/08/17 11:27:34;;;;;;;3.47;2.30;;;;;;;-145.06;100.00;60892.56;4850545;28;20033;-89
2022/08/17 11:30:34;;;;;;;2.65;2.45;;;;;;;-145.06;100.00;60892.56;4853504;28;20104;-89
2022/08/17 11:33:39;;;;;;;2.65;2.45;;;;;;;-145.06;100.00;60892.56;4839350;28;20033;-91
2022/08/17 11:37:00;;;;;;;2.53;2.25;;;;;;;-145.06;100.00;60892.56;4839273;28;20022;-89
2022/08/17 11:40:17;;;;;;;3.17;2.70;;;;;;;-145.06;100.00;60892.56;4862274;28;20021;-91
2022/08/17 11:43:22;;;;;;;3.20;2.40;;;;;;;-145.06;100.00;60892.56;4848170;28;20038;-90
2022/08/17 11:46:01;;;;;;;2.80;2.15;;;;;;;-145.06;100.00;60892.56;4865688;28;20034;-88
2022/08/17 11:52:31;;;;;;;2.30;2.10;;;;;;;-145.06;100.00;60892.56;4838470;28;20030;-90
2022/08/17 11:55:31;;;;;;;2.50;2.10;;;;;;;-145.06;100.00;60892.56;4850497;28;20472;-90
2022/08/17 11:58:28;;;;;;;2.75;2.47;;;;;;;-145.06;100.00;60892.56;4839018;28;20369;-90
2022/08/17 12:01:23;;;;;;;2.40;2.20;;;;;;;-145.06;100.00;60892.56;4840026;28;20030;-89
2022/08/17 12:04:20;;;;;;;2.75;2.25;;;;;;;-145.06;100.00;60892.56;4838558;28;20468;-90
2022/08/17 12:07:16;;;;;;;2.60;2.20;;;;;;;-145.06;100.00;60892.56;4829613;28;20022;-90
2022/08/17 12:09:58;;;;;;;2.65;2.40;;;;;;;-145.06;100.00;60892.56;4850778;28;20172;-89
2022/08/17 12:12:42;;;;;;;2.47;2.28;;;;;;;-145.06;100.00;60892.56;4838869;28;20421;-90
2022/08/17 12:15:34;;;;;;;2.42;2.22;;;;;;;-145.06;100.00;60892.56;4835882;28;20026;-89
2022/08/17 12:18:23;;;;;;;2.55;2.35;;;;;;;-145.06;100.00;60892.56;4837775;28;20029;-88
2022/08/17 12:21:25;;;;;;;2.78;2.30;;;;;;;-145.06;100.00;60892.56;4845657;28;20038;-88
2022/08/17 12:24:14;;;;;;;2.78;2.47;;;;;;;-145.06;100.00;60892.56;4830515;28;20038;-89
2022/08/17 12:26:57;;;;;;;2.38;2.10;;;;;;;-145.06;100.00;60892.56;4852047;28;20022;-88
2022/08/17 12:29:42;;;;;;;2.50;2.30;;;;;;;-145.06;100.00;60892.56;4833640;28;20037;-91
2022/08/17 12:32:25;;;;;;;2.58;2.38;;;;;;;-145.06;100.00;60892.56;4837401;28;20517;-88
2022/08/17 12:35:16;;;;;;;2.40;2.20;;;;;;;-145.06;100.00;60892.56;4836777;28;20472;-90
2022/08/17 12:37:56;;;;;;;2.63;2.35;;;;;;;-145.06;100.00;60892.56;4836905;28;20113;-88
2022/08/17 12:40:35;;;;;;;2.75;2.45;;;;;;;-145.06;100.00;60892.56;4835225;28;20384;-90
2022/08/17 12:43:20;;;;;;;3.30;2.97;;;;;;;-145.06;100.00;60892.56;4831430;28;20037;-89
2022/08/17 12:46:00;;;;;;;2.80;2.45;;;;;;;-145.06;100.00;60892.56;4848387;28;20069;-89
2022/08/17 12:48:39;;;;;;;2.75;2.50;;;;;;;-145.06;100.00;60892.56;4832066;28;20030;-88
2022/08/17 12:51:18;;;;;;;2.80;2.60;;;;;;;-145.06;100.00;60892.56;4835343;28;20060;-89
2022/08/17 12:53:57;;;;;;;2.47;2.28;;;;;;;-145.06;100.00;60892.56;4837196;28;20033;-88
2022/08/17 12:56:36;;;;;;;2.95;2.65;;;;;;;-145.06;100.00;60892.56;4827580;28;20029;-90
2022/08/17 12:59:17;;;;;;;2.55;2.20;;;;;;;-145.06;100.00;60892.56;4833504;28;20376;-88
2022/08/17 13:01:57;;;;;;;3.00;2.40;;;;;;;-145.06;100.00;60892.56;4836870;28;20034;-87
2022/08/17 13:04:38;;;;;;;4.40;2.13;;;;;;;-145.06;100.00;60892.56;4838028;28;20025;-88
2022/08/17 13:07:33;;;;;;;2.60;2.35;;;;;;;-145.06;100.00;60892.56;4836295;28;20030;-89
2022/08/17 13:10:17;;;;;;;2.80;2.53;;;;;;;-145.06;100.00;60892.56;4828817;28;20049;-87